Time;durP1;ratioP1;P1;durP2;ratioP2;P2;SDS_P1;SDS_P2;PMS_P1;PMS_P2;Temp;Humidity;BMP_temperature;BMP_pressure;BME280_temperature;BME280_humidity;BME280_pressure;Samples;Min_cycle;Max_cycle;Signal;HPM_P1;HPM_P2
2022/04/10 00:01:32;;;;;;;10.15;3.00;;;;;;;2.28;100.00;99285.25;5076601;28;20017;-85
2022/04/10 00:03:58;;;;;;;9.43;2.90;;;;;;;2.40;100.00;99299.72;5041139;28;20032;-84
2022/04/10 00:06:24;;;;;;;11.93;3.10;;;;;;;2.36;100.00;99295.78;5076049;28;20352;-85
2022/04/10 00:08:50;;;;;;;12.52;3.40;;;;;;;2.31;100.00;99295.34;5057898;28;20032;-86
2022/04/10 00:11:16;;;;;;;11.65;3.10;;;;;;;2.57;100.00;99341.47;5060663;28;20403;-86
2022/04/10 00:13:42;;;;;;;11.27;2.80;;;;;;;2.45;100.00;99321.81;5078324;28;20036;-87
2022/04/10 00:16:08;;;;;;;7.55;2.80;;;;;;;2.51;100.00;99329.88;5044219;28;20052;-87
2022/04/10 00:18:34;;;;;;;10.48;3.65;;;;;;;2.54;100.00;99337.38;5043475;28;20039;-86
2022/04/10 00:21:01;;;;;;;6.53;2.40;;;;;;;2.41;100.00;99308.28;5044023;28;20077;-86
2022/04/10 00:23:27;;;;;;;5.43;2.60;;;;;;;2.59;100.00;99336.97;5061170;28;20116;-87
2022/04/10 00:25:52;;;;;;;10.27;3.63;;;;;;;2.28;100.00;99293.00;5060458;28;20028;-90
2022/04/10 00:28:18;;;;;;;5.28;2.63;;;;;;;2.07;100.00;99282.78;5079446;28;20035;-87
2022/04/10 00:30:43;;;;;;;11.45;4.25;;;;;;;2.22;100.00;99311.69;5059330;28;20024;-88
2022/04/10 00:33:09;;;;;;;11.73;2.92;;;;;;;2.08;100.00;99294.78;5043364;28;20450;-88
2022/04/10 00:35:35;;;;;;;6.70;2.40;;;;;;;2.31;100.00;99323.03;5044357;28;20028;-86
2022/04/10 00:38:01;;;;;;;12.90;3.10;;;;;;;2.12;100.00;99294.34;5058848;28;20033;-86
2022/04/10 00:40:26;;;;;;;12.00;2.40;;;;;;;2.38;100.00;99327.53;5041787;28;20054;-87
2022/04/10 00:42:52;;;;;;;8.73;2.22;;;;;;;2.21;100.00;99304.88;5058897;28;20028;-86
2022/04/10 00:45:20;;;;;;;10.10;2.78;;;;;;;1.96;100.00;99279.34;5060201;28;20041;-87
2022/04/10 00:47:46;;;;;;;5.78;2.40;;;;;;;2.17;100.00;99308.69;5078329;28;20037;-87
2022/04/10 00:50:13;;;;;;;8.77;2.15;;;;;;;2.30;100.00;99323.97;5048564;28;20443;-86
2022/04/10 00:52:42;;;;;;;7.05;2.60;;;;;;;2.01;100.00;99284.13;5042006;28;20037;-86
2022/04/10 00:55:08;;;;;;;5.82;2.38;;;;;;;2.04;100.00;99267.47;5058679;28;20024;-86
2022/04/10 00:57:34;;;;;;;14.23;2.88;;;;;;;2.38;100.00;99317.19;5050977;28;20088;-87
2022/04/10 01:00:00;;;;;;;9.70;2.63;;;;;;;2.33;100.00;99314.16;5060279;28;20127;-86
2022/04/10 01:02:25;;;;;;;12.63;3.03;;;;;;;2.14;100.00;99284.66;5042672;28;20047;-88
2022/04/10 01:04:51;;;;;;;4.15;2.28;;;;;;;2.04;100.00;99273.50;5060217;28;20051;-86
2022/04/10 01:07:18;;;;;;;10.20;2.75;;;;;;;2.13;100.00;99288.22;5075403;28;20035;-86
2022/04/10 01:09:44;;;;;;;6.00;2.90;;;;;;;1.93;100.00;99265.81;5059682;28;20063;-87
2022/04/10 01:12:11;;;;;;;10.60;3.67;;;;;;;2.04;100.00;99289.03;5043343;28;20036;-86
2022/04/10 01:14:37;;;;;;;5.30;2.53;;;;;;;2.17;100.00;99313.88;5059448;28;20033;-86
2022/04/10 01:17:06;;;;;;;8.25;2.35;;;;;;;2.04;100.00;99289.03;5044466;28;20032;-87
2022/04/10 01:19:32;;;;;;;11.38;3.40;;;;;;;2.04;100.00;99286.44;5044027;28;20470;-87
2022/04/10 01:22:00;;;;;;;7.85;3.38;;;;;;;1.95;100.00;99282.88;5049865;28;20061;-87
2022/04/10 01:24:26;;;;;;;6.93;2.60;;;;;;;2.12;100.00;99312.47;5067611;28;20032;-86
2022/04/10 01:26:52;;;;;;;10.07;3.25;;;;;;;2.00;100.00;99298.03;5054737;28;20051;-85
2022/04/10 01:29:17;;;;;;;12.20;2.97;;;;;;;2.02;100.00;99301.28;5067904;28;20031;-83
2022/04/10 01:31:47;;;;;;;8.85;2.47;;;;;;;1.93;100.00;99276.19;5060681;28;20029;-87
2022/04/10 01:34:14;;;;;;;6.88;2.58;;;;;;;2.16;100.00;99296.66;5075829;28;20440;-88
2022/04/10 01:36:42;;;;;;;6.85;2.70;;;;;;;1.89;100.00;99264.47;5068152;28;20033;-85
2022/04/10 01:39:10;;;;;;;8.48;2.85;;;;;;;2.12;100.00;99301.31;5063941;28;20082;-86
2022/04/10 01:41:36;;;;;;;6.95;2.80;;;;;;;1.96;100.00;99273.31;5061606;28;20028;-84
2022/04/10 01:44:04;;;;;;;9.70;3.30;;;;;;;1.76;100.00;99237.03;5060303;28;20044;-86
2022/04/10 01:46:32;;;;;;;11.60;3.53;;;;;;;2.16;100.00;99296.66;5062184;28;20054;-85
2022/04/10 01:48:58;;;;;;;12.05;3.70;;;;;;;2.18;100.00;99311.13;5078382;28;20132;-87
2022/04/10 01:51:25;;;;;;;11.40;3.15;;;;;;;2.03;100.00;99289.97;5045988;28;20036;-85
2022/04/10 01:53:52;;;;;;;7.05;2.78;;;;;;;2.01;100.00;99284.13;5062066;28;20461;-86
2022/04/10 01:56:17;;;;;;;10.35;3.15;;;;;;;2.02;100.00;99297.88;5063579;28;20090;-87
2022/04/10 01:58:45;;;;;;;8.85;2.70;;;;;;;2.04;100.00;99281.25;5047471;28;20021;-85
2022/04/10 02:01:13;;;;;;;14.70;2.92;;;;;;;2.11;100.00;99291.91;5084035;28;20134;-86
2022/04/10 02:03:39;;;;;;;6.03;2.45;;;;;;;2.08;100.00;99280.03;5063530;28;20039;-86
2022/04/10 02:06:09;;;;;;;6.63;2.47;;;;;;;2.11;100.00;99295.31;5063103;28;20076;-86
2022/04/10 02:08:35;;;;;;;11.98;3.05;;;;;;;2.05;100.00;99290.66;5064666;28;20036;-87
2022/04/10 02:11:09;;;;;;;10.15;2.38;;;;;;;2.15;100.00;99308.81;5049971;28;20546;-87
2022/04/10 02:13:35;;;;;;;11.57;2.72;;;;;;;1.96;100.00;99283.69;5063275;28;20029;-86
2022/04/10 02:16:00;;;;;;;7.93;2.35;;;;;;;1.98;100.00;99289.56;5063860;28;20028;-88
2022/04/10 02:18:26;;;;;;;13.70;2.58;;;;;;;2.02;100.00;99296.13;5063265;28;20035;-87
2022/04/10 02:20:51;;;;;;;7.43;1.92;;;;;;;2.10;100.00;99298.84;5064820;28;20078;-87
2022/04/10 02:23:17;;;;;;;7.25;2.50;;;;;;;2.18;100.00;99305.16;5064633;28;20033;-86
2022/04/10 02:25:42;;;;;;;10.57;2.22;;;;;;;2.08;100.00;99290.41;5081493;28;20032;-86
2022/04/10 02:28:09;;;;;;;8.57;2.67;;;;;;;2.11;100.00;99295.31;5063015;28;20024;-86
2022/04/10 02:30:35;;;;;;;5.80;2.35;;;;;;;2.08;100.00;99289.59;5046090;28;20074;-86
2022/04/10 02:33:00;;;;;;;8.57;2.42;;;;;;;1.97;100.00;99256.88;5059972;28;20068;-85
2022/04/10 02:35:26;;;;;;;16.45;2.13;;;;;;;2.08;100.00;99274.06;5078422;28;20035;-85
2022/04/10 02:37:52;;;;;;;10.35;2.75;;;;;;;2.06;100.00;99253.47;5061220;28;20024;-85
2022/04/10 02:40:18;;;;;;;7.35;2.03;;;;;;;2.33;100.00;99296.00;5080303;28;20029;-85
2022/04/10 02:42:44;;;;;;;6.93;2.33;;;;;;;2.27;100.00;99288.78;5061650;28;21381;-86
2022/04/10 02:45:11;;;;;;;6.95;2.38;;;;;;;2.05;100.00;99244.06;5060867;28;20036;-86
2022/04/10 02:47:37;;;;;;;8.30;2.63;;;;;;;2.40;100.00;99304.91;5061803;28;20356;-85
2022/04/10 02:50:04;;;;;;;12.68;2.90;;;;;;;2.24;100.00;99283.88;5062187;28;20120;-87
2022/04/10 02:52:30;;;;;;;8.27;2.20;;;;;;;2.32;100.00;99301.34;5067011;28;20099;-87
2022/04/10 02:54:57;;;;;;;12.30;2.55;;;;;;;2.29;100.00;99286.88;5067854;28;20028;-87
2022/04/10 02:57:22;;;;;;;5.50;1.95;;;;;;;2.17;100.00;99273.25;5047099;28;20468;-86
2022/04/10 02:59:48;;;;;;;5.00;2.00;;;;;;;2.12;100.00;99268.44;5060663;28;20024;-85
2022/04/10 03:02:14;;;;;;;6.13;2.03;;;;;;;2.19;100.00;99275.69;5080546;28;20474;-85
2022/04/10 03:04:39;;;;;;;6.10;2.35;;;;;;;2.22;100.00;99290.97;5078327;28;20504;-86
2022/04/10 03:07:05;;;;;;;11.63;2.60;;;;;;;2.30;100.00;99298.06;5062679;28;20040;-86
2022/04/10 03:09:30;;;;;;;10.20;2.60;;;;;;;2.07;100.00;99264.66;5060455;28;20032;-85
2022/04/10 03:11:56;;;;;;;7.78;2.55;;;;;;;2.22;100.00;99296.97;5070361;28;20077;-86
2022/04/10 03:14:22;;;;;;;6.22;2.38;;;;;;;2.20;100.00;99293.69;5070623;28;20024;-86
2022/04/10 03:16:47;;;;;;;14.48;3.00;;;;;;;2.18;100.00;99297.38;5090269;28;20393;-86
2022/04/10 03:19:13;;;;;;;10.32;3.13;;;;;;;2.25;100.00;99317.41;5074695;28;20026;-84
2022/04/10 03:21:38;;;;;;;7.63;2.40;;;;;;;2.10;100.00;99298.84;5044921;28;20028;-85
2022/04/10 03:24:04;;;;;;;8.10;2.33;;;;;;;2.16;100.00;99307.03;5079203;28;20051;-85
2022/04/10 03:26:30;;;;;;;14.25;3.47;;;;;;;2.09;100.00;99286.84;5043899;28;20033;-86
2022/04/10 03:28:56;;;;;;;13.07;2.65;;;;;;;2.31;100.00;99320.44;5077271;28;20036;-85
2022/04/10 03:31:22;;;;;;;9.30;2.80;;;;;;;2.13;100.00;99290.00;5075622;28;20036;-86
2022/04/10 03:33:49;;;;;;;7.20;2.67;;;;;;;2.00;100.00;99282.47;5041597;28;20479;-86
2022/04/10 03:36:15;;;;;;;8.07;2.35;;;;;;;1.92;100.00;99280.56;5041574;28;20033;-86
2022/04/10 03:38:41;;;;;;;6.25;2.35;;;;;;;1.78;100.00;99268.81;5041882;28;20382;-83
2022/04/10 03:41:08;;;;;;;8.70;2.30;;;;;;;1.83;100.00;99286.50;5058746;28;20111;-85
2022/04/10 03:43:34;;;;;;;5.10;2.25;;;;;;;1.90;100.00;99297.16;5082233;28;20082;-85
2022/04/10 03:46:00;;;;;;;7.63;2.45;;;;;;;1.74;100.00;99279.53;5066203;28;20037;-85
2022/04/10 03:48:26;;;;;;;9.63;2.40;;;;;;;1.74;100.00;99287.31;5064823;28;20113;-84
2022/04/10 03:50:52;;;;;;;7.60;2.63;;;;;;;1.79;100.00;99287.72;5060889;28;20058;-84
2022/04/10 03:53:18;;;;;;;10.02;2.80;;;;;;;2.07;100.00;99321.63;5077751;28;20044;-86
2022/04/10 03:55:43;;;;;;;9.23;2.80;;;;;;;1.80;100.00;99282.44;5061031;28;20427;-86
2022/04/10 03:58:09;;;;;;;7.38;2.20;;;;;;;1.78;100.00;99281.75;5062337;28;20032;-87
2022/04/10 04:00:35;;;;;;;9.70;3.00;;;;;;;2.03;100.00;99328.81;5046151;28;20054;-88
2022/04/10 04:03:01;;;;;;;4.95;2.35;;;;;;;1.82;100.00;99280.53;5080968;28;20068;-88
2022/04/10 04:05:27;;;;;;;8.40;2.25;;;;;;;1.79;100.00;99279.97;5062360;28;20035;-87
2022/04/10 04:07:56;;;;;;;9.27;2.60;;;;;;;2.06;100.00;99318.19;5062327;28;20032;-87
2022/04/10 04:10:21;;;;;;;8.52;2.20;;;;;;;1.94;100.00;99299.38;5048977;28;20039;-88
2022/04/10 04:12:47;;;;;;;6.63;1.83;;;;;;;1.72;100.00;99269.31;5050818;28;20040;-87
2022/04/10 04:15:13;;;;;;;7.30;2.45;;;;;;;1.80;100.00;99276.44;5049965;28;20029;-87
2022/04/10 04:17:39;;;;;;;7.68;2.45;;;;;;;1.81;100.00;99293.59;5049818;28;20043;-86
2022/04/10 04:20:06;;;;;;;8.88;2.10;;;;;;;1.80;100.00;99279.00;5047574;28;20072;-86
2022/04/10 04:22:32;;;;;;;8.30;2.65;;;;;;;1.64;100.00;99261.41;5046184;28;20123;-89
2022/04/10 04:24:57;;;;;;;15.05;3.05;;;;;;;1.79;100.00;99290.31;5046139;28;20071;-90
2022/04/10 04:27:23;;;;;;;4.68;2.50;;;;;;;1.68;100.00;99273.13;5080094;28;20183;-88
2022/04/10 04:29:49;;;;;;;9.00;2.40;;;;;;;1.94;100.00;99317.47;5063611;28;20060;-88
2022/04/10 04:32:15;;;;;;;9.63;2.65;;;;;;;1.69;100.00;99275.59;5047237;28;20094;-86
2022/04/10 04:34:40;;;;;;;4.40;2.10;;;;;;;1.64;100.00;99274.34;5063684;28;20028;-88
2022/04/10 04:37:07;;;;;;;10.43;3.20;;;;;;;1.63;100.00;99281.28;5061200;28;20044;-87
2022/04/10 04:39:33;;;;;;;12.43;2.70;;;;;;;1.81;100.00;99324.66;5079110;28;20024;-86
2022/04/10 04:41:58;;;;;;;4.60;2.30;;;;;;;1.61;100.00;99277.19;5043366;28;20094;-87
2022/04/10 04:44:25;;;;;;;9.40;2.58;;;;;;;1.62;100.00;99286.59;5061504;28;20040;-87
2022/04/10 04:46:50;;;;;;;6.80;2.35;;;;;;;1.76;100.00;99299.16;5047332;28;20086;-87
2022/04/10 04:49:16;;;;;;;9.50;2.60;;;;;;;1.87;100.00;99328.50;5048204;28;20036;-88
2022/04/10 04:51:43;;;;;;;11.10;2.70;;;;;;;1.69;100.00;99306.66;5066870;28;20082;-87
2022/04/10 04:54:09;;;;;;;12.48;2.67;;;;;;;1.79;100.00;99313.63;5055200;28;20075;-87
2022/04/10 04:56:35;;;;;;;7.85;2.53;;;;;;;1.50;100.00;99273.72;5082545;28;20044;-88
2022/04/10 04:59:00;;;;;;;6.68;2.50;;;;;;;1.54;100.00;99295.81;5117875;28;20036;-88
2022/04/10 05:01:26;;;;;;;7.30;2.45;;;;;;;1.82;100.00;99326.28;5066739;28;20032;-88
2022/04/10 05:03:52;;;;;;;5.15;1.92;;;;;;;1.56;100.00;99280.16;5075843;28;20078;-87
2022/04/10 05:06:18;;;;;;;11.27;2.30;;;;;;;1.77;100.00;99303.41;5053049;28;20032;-88
2022/04/10 05:08:47;;;;;;;8.60;2.35;;;;;;;1.64;100.00;99287.28;5070342;28;20032;-85
2022/04/10 05:11:14;;;;;;;12.35;2.72;;;;;;;1.55;100.00;99279.31;5067326;28;20501;-86
2022/04/10 05:13:40;;;;;;;10.30;2.22;;;;;;;1.87;100.00;99328.50;5068693;28;20040;-88
2022/04/10 05:16:07;;;;;;;9.35;3.30;;;;;;;1.60;100.00;99278.16;5053492;28;20489;-85
2022/04/10 05:18:33;;;;;;;7.65;2.33;;;;;;;1.56;100.00;99268.03;5053918;28;20478;-88
2022/04/10 05:20:59;;;;;;;8.35;2.20;;;;;;;1.92;100.00;99331.50;5066538;28;20470;-88
2022/04/10 05:23:25;;;;;;;8.90;2.92;;;;;;;1.87;100.00;99325.91;5048832;28;20039;-86
2022/04/10 05:25:51;;;;;;;8.23;2.05;;;;;;;1.65;100.00;99281.16;5050147;28;20109;-88
2022/04/10 05:28:17;;;;;;;6.15;2.20;;;;;;;1.76;100.00;99309.50;5082676;28;20028;-88
2022/04/10 05:30:43;;;;;;;10.35;2.75;;;;;;;1.91;100.00;99329.84;5051612;28;20044;-87
2022/04/10 05:33:09;;;;;;;7.63;2.58;;;;;;;2.10;100.00;99340.28;5067632;28;20032;-86
2022/04/10 05:35:35;;;;;;;10.98;2.42;;;;;;;2.11;100.00;99330.75;5050261;28;20039;-88
2022/04/10 05:38:01;;;;;;;7.05;1.92;;;;;;;1.97;100.00;99301.69;5067120;28;20111;-87
2022/04/10 05:40:28;;;;;;;6.20;2.35;;;;;;;2.01;100.00;99315.19;5100054;28;20048;-88
2022/04/10 05:42:54;;;;;;;7.38;2.50;;;;;;;2.31;100.00;99336.78;5068493;28;20039;-88
2022/04/10 05:45:20;;;;;;;6.35;2.33;;;;;;;2.16;100.00;99307.03;5067291;28;20386;-87
2022/04/10 05:47:46;;;;;;;10.75;2.00;;;;;;;2.23;100.00;99300.38;5065810;28;20032;-86
2022/04/10 05:50:13;;;;;;;4.40;1.67;;;;;;;2.38;100.00;99311.16;5081233;28;20036;-85
2022/04/10 05:52:45;;;;;;;10.75;1.92;;;;;;;2.41;100.00;99314.31;5047301;28;20029;-88
2022/04/10 05:55:14;;;;;;;7.57;2.55;;;;;;;2.54;100.00;99339.13;5049049;28;20067;-88
2022/04/10 05:57:40;;;;;;;10.73;3.00;;;;;;;2.26;100.00;99303.53;5059232;28;20028;-85
2022/04/10 06:00:10;;;;;;;7.50;2.67;;;;;;;2.56;100.00;99345.03;5043936;28;20035;-85
2022/04/10 06:02:37;;;;;;;4.85;2.70;;;;;;;2.28;100.00;99295.59;5061136;28;20040;-85
2022/04/10 06:05:03;;;;;;;9.25;2.83;;;;;;;2.53;100.00;99338.31;5089784;28;20067;-87
2022/04/10 06:07:29;;;;;;;5.65;2.58;;;;;;;2.60;100.00;99336.00;5099188;28;20032;-86
2022/04/10 06:09:55;;;;;;;7.00;2.60;;;;;;;2.66;100.00;99345.81;5078491;28;20468;-85
2022/04/10 06:12:20;;;;;;;9.35;2.10;;;;;;;2.68;100.00;99325.78;5051732;28;20389;-85
2022/04/10 06:14:46;;;;;;;6.22;2.00;;;;;;;2.85;100.00;99334.66;5060340;28;20382;-83
2022/04/10 06:17:12;;;;;;;4.63;1.92;;;;;;;2.68;100.00;99296.47;5079877;28;20052;-87
2022/04/10 06:19:37;;;;;;;6.65;2.05;;;;;;;2.99;100.00;99333.41;5045362;28;20025;-87
2022/04/10 06:22:03;;;;;;;7.90;2.17;;;;;;;3.10;100.00;99336.81;5079812;28;20037;-86
2022/04/10 06:24:28;;;;;;;6.85;2.20;;;;;;;3.17;100.00;99330.13;5047052;28;20129;-88
2022/04/10 06:26:54;;;;;;;6.45;2.05;;;;;;;3.24;100.00;99331.19;5045376;28;20124;-87
2022/04/10 06:29:20;;;;;;;7.05;2.13;;;;;;;3.42;100.00;99341.66;5064230;28;20105;-86
2022/04/10 06:31:47;;;;;;;11.07;2.08;;;;;;;3.51;100.00;99337.38;5078591;28;20020;-85
2022/04/10 06:34:12;;;;;;;7.30;1.90;;;;;;;3.41;100.00;99329.63;5049266;28;20040;-85
2022/04/10 06:36:39;;;;;;;6.80;2.58;;;;;;;3.42;100.00;99315.69;5058644;28;20031;-83
2022/04/10 06:39:05;;;;;;;5.72;1.65;;;;;;;3.49;100.00;99331.53;5042979;28;20033;-82
2022/04/10 06:41:31;;;;;;;5.80;2.35;;;;;;;3.57;100.00;99334.25;5079543;28;20095;-86
2022/04/10 06:43:57;;;;;;;6.25;2.22;;;;;;;3.54;100.00;99339.72;5063101;28;20025;-85
2022/04/10 06:46:24;;;;;;;6.82;2.10;;;;;;;3.44;100.00;99320.75;5060199;28;20024;-84
2022/04/10 06:48:50;;;;;;;4.78;2.60;;;;;;;3.44;100.00;99312.97;5060127;28;20028;-83
2022/04/10 06:51:19;;;;;;;8.77;2.28;;;;;;;3.63;100.00;99332.03;5043080;28;20105;-84
2022/04/10 06:53:44;;;;;;;6.90;2.55;;;;;;;3.77;100.00;99341.13;5059144;28;20040;-84
2022/04/10 06:56:11;;;;;;;5.65;2.00;;;;;;;3.78;100.00;99341.00;5043556;28;20097;-85
2022/04/10 06:58:36;;;;;;;9.00;2.17;;;;;;;3.91;100.00;99339.84;5093326;28;20028;-85
2022/04/10 07:01:02;;;;;;;7.20;2.13;;;;;;;4.12;100.00;99347.41;5058729;28;20081;-84
2022/04/10 07:03:28;;;;;;;8.73;2.50;;;;;;;4.25;100.00;99357.47;5042417;28;20167;-85
2022/04/10 07:05:54;;;;;;;6.30;2.13;;;;;;;4.31;100.00;99350.88;5042255;28;20032;-83
2022/04/10 07:08:19;;;;;;;8.77;2.15;;;;;;;4.46;100.00;99358.97;5042834;28;20482;-85
2022/04/10 07:10:45;;;;;;;6.32;2.47;;;;;;;4.49;100.00;99353.47;5059202;28;20036;-86
2022/04/10 07:13:17;;;;;;;5.63;1.98;;;;;;;4.66;100.00;99368.28;5058693;28;20039;-83
2022/04/10 07:15:46;;;;;;;8.13;2.05;;;;;;;4.42;100.00;99319.44;5074255;28;20021;-84
2022/04/10 07:18:12;;;;;;;4.03;2.15;;;;;;;4.70;100.00;99355.81;5056009;28;20482;-84
2022/04/10 07:20:37;;;;;;;4.35;2.40;;;;;;;4.83;100.00;99371.03;5057518;28;20120;-85
2022/04/10 07:25:47;;;;;;;5.00;1.95;;;;;;;4.89;100.00;99354.03;5074348;28;20127;-83
2022/04/10 07:28:12;;;;;;;7.85;2.97;;;;;;;5.00;100.00;99361.56;5040964;28;20037;-85
2022/04/10 07:30:38;;;;;;;8.25;2.67;;;;;;;4.90;100.00;99329.63;5058947;28;20032;-85
2022/04/10 07:33:04;;;;;;;7.68;2.80;;;;;;;5.16;100.00;99360.91;5056486;28;20024;-83
2022/04/10 07:35:30;;;;;;;9.93;2.92;;;;;;;5.11;100.00;99337.94;5054027;28;20025;-85
2022/04/10 07:37:55;;;;;;;7.95;3.42;;;;;;;5.25;100.00;99359.97;5039302;28;20063;-84
2022/04/10 07:40:21;;;;;;;7.43;3.08;;;;;;;5.29;100.00;99360.50;5056326;28;20417;-83
2022/04/10 07:42:47;;;;;;;5.95;3.20;;;;;;;5.39;100.00;99365.63;5039341;28;20537;-83
2022/04/10 07:47:59;;;;;;;9.63;3.05;;;;;;;5.41;100.00;99374.91;5073529;28;20043;-83
2022/04/10 07:50:26;;;;;;;7.53;3.20;;;;;;;5.55;100.00;99376.13;5078546;28;20036;-90
2022/04/10 07:52:52;;;;;;;10.20;3.17;;;;;;;5.60;100.00;99380.91;5061345;28;20049;-88
2022/04/10 07:55:18;;;;;;;9.27;3.05;;;;;;;5.53;100.00;99362.47;5039708;28;20036;-88
2022/04/10 07:57:45;;;;;;;11.32;4.45;;;;;;;5.62;100.00;99355.50;5063785;28;20060;-90
2022/04/10 08:00:11;;;;;;;9.65;3.08;;;;;;;5.68;100.00;99365.31;5057544;28;20032;-88
2022/04/10 08:02:38;;;;;;;9.80;3.78;;;;;;;5.81;100.00;99369.28;5058908;28;20059;-88
2022/04/10 08:05:04;;;;;;;8.10;3.10;;;;;;;5.60;100.00;99327.97;5061672;28;20029;-90
2022/04/10 08:07:30;;;;;;;9.65;3.05;;;;;;;5.93;100.00;99368.03;5054532;28;20029;-88
2022/04/10 08:09:55;;;;;;;13.70;3.03;;;;;;;5.93;100.00;99354.19;5062918;28;20048;-88
2022/04/10 08:12:21;;;;;;;7.50;2.63;;;;;;;6.09;100.00;99367.31;5080903;28;20125;-87
2022/04/10 08:14:48;;;;;;;11.65;3.42;;;;;;;6.11;100.00;99369.75;5038354;28;20023;-86
2022/04/10 08:17:14;;;;;;;7.60;2.92;;;;;;;6.02;100.00;99361.09;5060160;28;20098;-87
2022/04/10 08:19:40;;;;;;;7.63;2.67;;;;;;;6.07;100.00;99353.59;5050231;28;20028;-88
2022/04/10 08:22:06;;;;;;;5.28;2.10;;;;;;;6.26;100.00;99372.56;5044839;28;20386;-84
2022/04/10 08:24:33;;;;;;;8.20;3.03;;;;;;;6.21;100.00;99354.81;5059687;28;20504;-86
2022/04/10 08:26:59;;;;;;;4.25;2.30;;;;;;;6.24;100.00;99348.44;5059011;28;20033;-86
2022/04/10 08:29:26;;;;;;;7.38;2.17;;;;;;;6.38;100.00;99363.50;5062324;28;20044;-90
2022/04/10 08:31:51;;;;;;;10.35;3.15;;;;;;;6.45;100.00;99361.06;5044160;28;20033;-86
2022/04/10 08:34:18;;;;;;;6.50;2.28;;;;;;;6.54;100.00;99351.47;5064335;28;20062;-85
2022/04/10 08:36:43;;;;;;;5.15;2.53;;;;;;;6.56;100.00;99349.50;5062887;28;20060;-86
2022/04/10 08:39:10;;;;;;;8.68;2.30;;;;;;;6.69;100.00;99357.69;5043179;28;20029;-86
2022/04/10 08:41:39;;;;;;;9.98;2.67;;;;;;;6.79;100.00;99364.53;5060602;28;20028;-86
2022/04/10 08:44:05;;;;;;;7.13;3.35;;;;;;;6.88;100.00;99374.03;5078025;28;20024;-86
2022/04/10 08:46:33;;;;;;;5.45;2.13;;;;;;;6.87;100.00;99377.59;5093352;28;20537;-83
2022/04/10 08:48:59;;;;;;;6.68;2.70;;;;;;;6.88;100.00;99360.16;5077696;28;20090;-85
2022/04/10 08:51:28;;;;;;;8.73;2.53;;;;;;;7.04;100.00;99354.09;5055392;28;20064;-82
2022/04/10 08:53:55;;;;;;;10.07;4.20;;;;;;;7.24;100.00;99368.44;5053783;28;20099;-79
2022/04/10 08:56:22;;;;;;;7.65;2.53;;;;;;;7.31;100.00;99367.81;5052212;28;20025;-81
2022/04/10 08:58:51;;;;;;;5.05;2.20;;;;;;;7.33;100.00;99360.63;5036231;28;20044;-80
2022/04/10 09:01:19;;;;;;;4.63;2.80;;;;;;;7.42;100.00;99372.69;5030056;28;20036;-79
2022/04/10 09:03:46;;;;;;;5.72;2.53;;;;;;;7.48;100.00;99372.03;5046833;28;20035;-78
2022/04/10 09:06:12;;;;;;;4.90;2.70;;;;;;;7.40;100.00;99357.19;5065351;28;20040;-79
2022/04/10 09:08:38;;;;;;;6.80;2.47;;;;;;;7.61;100.00;99363.69;5065628;28;20035;-81
2022/04/10 09:11:07;;;;;;;9.60;3.03;;;;;;;7.62;100.00;99365.31;5052872;28;20028;-81
2022/04/10 09:13:34;;;;;;;7.30;4.57;;;;;;;7.69;100.00;99374.09;5069246;28;20075;-80
2022/04/10 09:16:04;;;;;;;9.82;4.95;;;;;;;7.87;100.00;99370.44;5070517;28;20490;-83
2022/04/10 09:18:43;;;;;;;7.93;4.97;;;;;;;7.99;99.86;99365.66;5051208;28;20033;-82
2022/04/10 09:21:10;;;;;;;7.70;4.65;;;;;;;7.98;100.00;99357.03;5070823;28;20104;-81
2022/04/10 09:23:36;;;;;;;10.27;4.88;;;;;;;8.11;100.00;99361.72;5071557;28;20056;-81
2022/04/10 09:26:02;;;;;;;5.85;5.25;;;;;;;8.16;99.42;99369.06;5052990;28;20033;-81
2022/04/10 09:28:47;;;;;;;6.47;5.20;;;;;;;7.99;97.07;99363.06;5070651;28;20032;-80
2022/04/10 09:31:33;;;;;;;7.35;5.53;;;;;;;8.03;100.00;99363.53;5070158;28;20104;-82
2022/04/10 09:34:05;;;;;;;5.50;5.00;;;;;;;7.96;100.00;99347.72;5053419;28;20039;-81
2022/04/10 09:37:04;;;;;;;6.75;5.28;;;;;;;8.04;100.00;99355.50;5071902;28;20032;-80
2022/04/10 09:39:36;;;;;;;7.20;5.25;;;;;;;8.18;100.00;99358.41;5051756;28;20028;-81
2022/04/10 09:42:05;;;;;;;9.05;5.80;;;;;;;8.03;99.48;99347.84;5072393;28;20048;-81
2022/04/10 09:44:38;;;;;;;8.90;5.72;;;;;;;8.20;100.00;99348.59;5073873;28;20058;-82
2022/04/10 09:47:09;;;;;;;6.70;5.30;;;;;;;8.38;100.00;99341.28;5065295;28;20028;-81
2022/04/10 09:50:06;;;;;;;10.57;4.80;;;;;;;8.80;100.00;99359.38;5039542;28;20071;-81
2022/04/10 09:52:37;;;;;;;9.63;6.10;;;;;;;8.70;98.99;99344.72;5053498;28;20029;-81
2022/04/10 09:55:04;;;;;;;6.28;5.78;;;;;;;8.55;97.85;99349.06;5073387;28;20025;-81
2022/04/10 09:57:30;;;;;;;7.22;5.25;;;;;;;8.73;96.72;99353.22;5074040;28;20108;-82
2022/04/10 09:59:59;;;;;;;6.22;5.63;;;;;;;8.79;100.00;99344.66;5055158;28;20028;-81
2022/04/10 10:02:25;;;;;;;7.43;5.80;;;;;;;9.20;100.00;99338.28;5072334;28;20071;-81
2022/04/10 10:04:50;;;;;;;7.22;5.90;;;;;;;9.53;100.00;99346.63;5055108;28;20455;-81
2022/04/10 10:07:20;;;;;;;11.70;6.80;;;;;;;9.72;96.04;99347.06;5054917;28;20390;-82
2022/04/10 10:09:49;;;;;;;9.02;6.82;;;;;;;9.38;96.77;99340.53;5071575;28;20124;-82
2022/04/10 10:12:17;;;;;;;8.18;6.57;;;;;;;9.46;98.01;99337.88;5054304;28;20024;-82
2022/04/10 10:14:44;;;;;;;8.02;5.75;;;;;;;9.61;96.00;99339.66;5054790;28;20521;-82
2022/04/10 10:17:10;;;;;;;8.20;5.78;;;;;;;9.75;95.27;99330.97;5073141;28;20425;-81
2022/04/10 10:19:38;;;;;;;8.10;6.00;;;;;;;10.03;94.22;99329.50;5054584;28;20036;-80
2022/04/10 10:22:09;;;;;;;7.43;5.93;;;;;;;9.74;92.77;99318.88;5054796;28;20099;-81
2022/04/10 10:25:03;;;;;;;6.28;5.78;;;;;;;10.00;92.87;99333.31;5055415;28;20036;-81
2022/04/10 10:27:35;;;;;;;8.23;6.30;;;;;;;10.12;87.73;99336.25;5074689;28;20028;-81
2022/04/10 10:30:21;;;;;;;7.72;6.03;;;;;;;10.07;86.08;99322.91;5072355;28;20036;-81
2022/04/10 10:32:55;;;;;;;6.40;5.82;;;;;;;10.24;85.83;99328.75;5071250;28;20035;-80
2022/04/10 10:35:42;;;;;;;7.15;6.35;;;;;;;10.20;87.39;99323.06;5055374;28;20020;-81
2022/04/10 10:38:22;;;;;;;6.75;6.15;;;;;;;10.27;89.31;99323.94;5072544;28;20534;-81
2022/04/10 10:40:52;;;;;;;7.05;6.45;;;;;;;10.64;88.02;99328.38;5054771;28;20029;-82
2022/04/10 10:43:29;;;;;;;7.20;6.50;;;;;;;11.10;89.22;99316.63;5037265;28;20040;-80
2022/04/10 10:45:57;;;;;;;9.05;6.43;;;;;;;11.34;89.69;99304.06;5053892;28;20040;-81
2022/04/10 10:48:32;;;;;;;9.05;7.10;;;;;;;11.70;88.97;99322.28;5070571;28;20032;-82
2022/04/10 10:51:22;;;;;;;9.93;7.20;;;;;;;11.32;83.84;99311.31;5072436;28;20044;-81
2022/04/10 10:53:57;;;;;;;7.07;6.57;;;;;;;11.37;86.12;99319.44;5086460;28;20075;-80
2022/04/10 10:56:31;;;;;;;7.45;6.75;;;;;;;11.45;85.53;99314.03;5071254;28;20025;-80
2022/04/10 10:59:22;;;;;;;7.53;6.82;;;;;;;11.32;79.68;99313.94;5052118;28;20065;-81
2022/04/10 11:01:53;;;;;;;6.97;6.35;;;;;;;10.83;80.34;99316.44;5072228;28;20109;-80
2022/04/10 11:04:20;;;;;;;8.52;6.70;;;;;;;10.19;79.34;99307.50;5053996;28;20401;-81
2022/04/10 11:06:48;;;;;;;7.20;6.53;;;;;;;10.18;79.22;99319.81;5071895;28;20024;-81
2022/04/10 11:09:28;;;;;;;8.38;6.18;;;;;;;10.25;78.05;99314.63;5072111;28;20044;-80
2022/04/10 11:11:56;;;;;;;7.88;7.18;;;;;;;10.49;83.17;99307.44;5069553;28;20172;-80
2022/04/10 11:14:45;;;;;;;8.65;6.88;;;;;;;10.33;76.97;99308.47;5069678;28;20034;-80
2022/04/10 11:17:27;;;;;;;8.30;7.10;;;;;;;10.26;75.16;99300.53;5071056;28;20077;-81
2022/04/10 11:19:54;;;;;;;10.18;7.57;;;;;;;10.26;81.76;99290.03;5071289;28;20032;-81
2022/04/10 11:22:33;;;;;;;7.35;6.70;;;;;;;10.49;79.90;99296.94;5052670;28;20034;-80
2022/04/10 11:25:04;;;;;;;7.78;7.00;;;;;;;10.24;78.37;99286.78;5071360;28;20044;-80
2022/04/10 11:27:59;;;;;;;9.13;7.00;;;;;;;10.47;77.77;99293.69;5071772;28;20039;-79
2022/04/10 11:30:33;;;;;;;7.18;6.57;;;;;;;10.56;79.79;99295.19;5070026;28;20040;-79
2022/04/10 11:32:59;;;;;;;8.50;7.47;;;;;;;10.67;80.88;99284.19;5070389;28;20045;-81
2022/04/10 11:35:36;;;;;;;7.50;6.80;;;;;;;10.94;81.38;99265.19;5071915;28;20027;-79
2022/04/10 11:38:12;;;;;;;8.48;6.88;;;;;;;10.90;81.97;99274.44;5072229;28;20058;-82
2022/04/10 11:40:41;;;;;;;7.80;7.00;;;;;;;11.12;79.03;99277.84;5070590;28;20040;-79